Drummond, Idaho
Current Conditions -  °F | °C
As of 4:56 AM on Wednesday 28 Jan 2015 (Local Time) from KDIJ Reporting Station
Overcast Overcast  
Wind Chill: 27°   Ceiling: 2800
Heat Index: 35°   Visibility: 10mi
Dew Point: 33°   Wind: 12mph
Humidity: 92%   Direction: 180°S
Pressure: 30.16"   Gusts: NA
Location:  44.0126°N, 111.37°W
Report Text: KDIJ 281156Z AUTO 18010KT 10SM SCT022 BKN028 OVC038 02/01 A3016 RMK AO2 53007 60000 70002 T00160005 10027 20016 SLP191
Loading
Personal Weather Stations






























Interactive Weather Map New forecast layout! Learn more

10-Day Weather Forecast

Advertisements
Track Severe Weather on mobile